createdAt,value
2022-08-23T00:01:47.963Z,21.00
2022-08-23T00:04:21.099Z,20.89
2022-08-23T00:06:50.819Z,20.72
2022-08-23T00:09:21.067Z,20.64
2022-08-23T00:12:12.047Z,20.66
2022-08-23T00:14:46.482Z,20.57
2022-08-23T00:17:33.211Z,20.56
2022-08-23T00:20:04.782Z,20.50
2022-08-23T00:22:33.029Z,20.45
2022-08-23T00:25:01.614Z,20.47
2022-08-23T00:27:30.020Z,20.51
2022-08-23T00:29:58.577Z,20.55
2022-08-23T00:32:34.748Z,20.69
2022-08-23T00:35:04.904Z,20.71
2022-08-23T00:37:34.092Z,20.71
2022-08-23T00:40:04.252Z,20.67
2022-08-23T00:43:17.920Z,20.60
2022-08-23T00:46:35.562Z,20.62
2022-08-23T00:49:11.087Z,20.56
2022-08-23T00:51:53.256Z,20.57
2022-08-23T00:54:27.226Z,20.57
2022-08-23T00:57:01.327Z,20.52
2022-08-23T00:59:30.005Z,20.52
2022-08-23T01:01:59.763Z,20.59
2022-08-23T01:04:37.328Z,20.68
2022-08-23T01:07:15.596Z,20.71
2022-08-23T01:09:44.863Z,20.72
2022-08-23T01:12:32.198Z,20.67
2022-08-23T01:15:06.877Z,20.65
2022-08-23T01:17:54.883Z,20.63
2022-08-23T01:20:27.049Z,20.61
2022-08-23T01:23:18.692Z,20.60
2022-08-23T01:25:47.224Z,20.60
2022-08-23T01:28:15.594Z,20.58
2022-08-23T01:30:46.382Z,20.59
2022-08-23T01:33:14.979Z,20.62
2022-08-23T01:35:50.891Z,20.58
2022-08-23T01:38:20.013Z,20.57
2022-08-23T01:40:48.776Z,20.27
2022-08-23T01:43:21.501Z,20.16
2022-08-23T01:45:52.760Z,20.01
2022-08-23T01:48:23.727Z,20.00
2022-08-23T01:50:52.664Z,20.00
2022-08-23T01:53:20.870Z,19.99
2022-08-23T01:55:51.565Z,20.04
2022-08-23T01:58:22.745Z,20.04
2022-08-23T02:00:54.402Z,20.09
2022-08-23T02:03:22.693Z,20.15
2022-08-23T02:08:40.380Z,20.28
2022-08-23T02:11:15.275Z,20.38
2022-08-23T02:13:44.713Z,20.46
2022-08-23T02:16:21.053Z,20.51
2022-08-23T02:18:49.267Z,20.52
2022-08-23T02:21:17.784Z,20.56
2022-08-23T02:23:47.089Z,20.53
2022-08-23T02:26:15.603Z,20.51
2022-08-23T02:28:50.138Z,20.50
2022-08-23T02:31:18.879Z,20.49
2022-08-23T02:33:51.239Z,20.49
2022-08-23T02:38:55.340Z,20.50
2022-08-23T02:41:24.427Z,20.49
2022-08-23T02:43:56.639Z,20.41
2022-08-23T02:46:25.422Z,20.38
2022-08-23T02:48:55.258Z,20.29
2022-08-23T02:51:23.844Z,20.24
2022-08-23T02:53:52.813Z,20.22
2022-08-23T02:56:23.544Z,20.20
2022-08-23T02:58:54.311Z,20.21
2022-08-23T03:01:30.247Z,20.17
2022-08-23T03:04:10.222Z,20.25
2022-08-23T03:06:38.976Z,20.21
2022-08-23T03:09:08.284Z,20.23
2022-08-23T03:11:36.931Z,20.18
2022-08-23T03:14:05.262Z,20.18
2022-08-23T03:16:34.483Z,20.13
2022-08-23T03:19:03.450Z,20.08
2022-08-23T03:21:32.559Z,20.00
2022-08-23T03:24:01.380Z,19.95
2022-08-23T03:26:36.008Z,19.88
2022-08-23T03:29:04.696Z,19.91
2022-08-23T03:31:39.792Z,19.86
2022-08-23T03:34:12.963Z,19.88
2022-08-23T03:36:41.168Z,19.90
2022-08-23T03:39:10.223Z,19.90
2022-08-23T03:41:39.180Z,19.93
2022-08-23T03:44:08.844Z,19.89
2022-08-23T03:46:42.272Z,19.89
2022-08-23T03:49:11.287Z,19.75
2022-08-23T03:51:53.585Z,19.71
2022-08-23T03:54:22.729Z,19.65
2022-08-23T03:57:00.973Z,19.64
2022-08-23T03:59:35.225Z,19.65
2022-08-23T04:02:06.004Z,19.68
2022-08-23T04:04:34.786Z,19.65
2022-08-23T04:07:23.328Z,19.65
2022-08-23T04:09:56.116Z,19.62
2022-08-23T04:12:26.984Z,19.63
2022-08-23T04:14:55.522Z,19.65
2022-08-23T04:17:25.068Z,19.69
2022-08-23T04:19:54.872Z,19.74
2022-08-23T04:22:23.172Z,19.82
2022-08-23T04:24:51.795Z,19.81
2022-08-23T04:27:20.033Z,19.69
2022-08-23T04:29:50.382Z,19.64
2022-08-23T04:32:28.186Z,19.63
2022-08-23T04:34:58.538Z,19.57
2022-08-23T04:37:28.144Z,19.60
2022-08-23T04:40:15.622Z,19.58
2022-08-23T04:42:44.367Z,19.55
2022-08-23T04:45:14.246Z,19.60
2022-08-23T04:47:46.510Z,19.59
2022-08-23T04:50:14.776Z,19.60
2022-08-23T04:53:02.225Z,19.59
2022-08-23T04:55:36.436Z,19.62
2022-08-23T04:58:08.545Z,19.62
2022-08-23T05:00:51.388Z,19.65
2022-08-23T05:03:24.291Z,19.77
2022-08-23T05:05:54.300Z,19.79
2022-08-23T05:08:28.445Z,19.85
2022-08-23T05:10:59.919Z,19.92
2022-08-23T05:13:28.462Z,19.97
2022-08-23T05:15:57.344Z,20.02
2022-08-23T05:18:33.473Z,20.06
2022-08-23T05:21:02.326Z,20.15
2022-08-23T05:23:31.857Z,20.17
2022-08-23T05:26:09.901Z,20.20
2022-08-23T05:28:44.960Z,20.31
2022-08-23T05:31:24.789Z,20.42
2022-08-23T05:34:02.464Z,20.53
2022-08-23T05:36:38.641Z,20.64
2022-08-23T05:39:17.516Z,20.75
2022-08-23T05:42:12.522Z,20.92
2022-08-23T05:44:40.969Z,21.08
2022-08-23T05:47:12.899Z,21.15
2022-08-23T05:50:12.524Z,21.23
2022-08-23T05:52:41.517Z,21.62
2022-08-23T05:55:10.529Z,21.94
2022-08-23T05:57:41.893Z,22.01
2022-08-23T06:00:14.784Z,22.10
2022-08-23T06:02:51.380Z,22.07
2022-08-23T06:05:21.577Z,22.18
2022-08-23T06:07:51.919Z,22.24
2022-08-23T06:10:22.903Z,22.41
2022-08-23T06:13:04.330Z,22.63
2022-08-23T06:15:32.832Z,22.84
2022-08-23T06:18:01.256Z,23.08
2022-08-23T06:20:30.539Z,23.28
2022-08-23T06:23:07.663Z,23.50
2022-08-23T06:25:40.230Z,24.20
2022-08-23T06:28:18.898Z,25.82
2022-08-23T06:30:57.284Z,26.11
2022-08-23T06:33:35.284Z,26.22
2022-08-23T06:36:25.883Z,26.78
2022-08-23T06:39:16.569Z,27.29
2022-08-23T06:42:38.458Z,27.16
2022-08-23T06:45:06.314Z,26.88
2022-08-23T06:47:48.407Z,27.13
2022-08-23T06:50:16.720Z,27.64
2022-08-23T06:53:10.082Z,27.90
2022-08-23T06:56:10.922Z,28.01
2022-08-23T06:58:53.567Z,28.53
2022-08-23T07:02:04.092Z,29.87
2022-08-23T07:04:54.071Z,31.56
2022-08-23T07:07:44.215Z,32.96
2022-08-23T07:10:15.660Z,32.41
2022-08-23T07:12:45.102Z,32.95
2022-08-23T07:15:14.529Z,33.51
2022-08-23T07:17:47.354Z,33.87
2022-08-23T07:20:15.696Z,33.03
2022-08-23T07:22:45.939Z,32.22
2022-08-23T07:25:14.848Z,31.71
2022-08-23T07:27:48.311Z,31.43
2022-08-23T07:30:17.695Z,31.29
2022-08-23T07:32:46.552Z,30.99
2022-08-23T07:35:25.537Z,30.78
2022-08-23T07:37:59.590Z,30.39
2022-08-23T07:40:38.790Z,30.30
2022-08-23T07:43:09.244Z,30.08
2022-08-23T07:45:42.573Z,30.24
2022-08-23T07:48:14.300Z,30.48
2022-08-23T07:51:13.717Z,30.59
2022-08-23T07:53:45.911Z,31.14
2022-08-23T07:56:17.741Z,32.71
2022-08-23T07:59:06.022Z,34.50
2022-08-23T08:01:37.654Z,35.47
2022-08-23T08:04:09.052Z,35.69
2022-08-23T08:06:46.280Z,36.10
2022-08-23T08:09:16.786Z,35.94
2022-08-23T08:11:52.328Z,36.08
2022-08-23T08:14:25.634Z,36.15
2022-08-23T08:17:00.694Z,34.69
2022-08-23T08:19:48.975Z,34.17
2022-08-23T08:22:42.375Z,34.30
2022-08-23T08:25:18.510Z,35.22
2022-08-23T08:27:50.140Z,35.50
2022-08-23T08:30:18.392Z,34.64
2022-08-23T08:32:47.624Z,33.85
2022-08-23T08:35:16.833Z,33.55
2022-08-23T08:37:45.216Z,33.07
2022-08-23T08:40:17.844Z,31.65
2022-08-23T08:43:10.785Z,31.01
2022-08-23T08:46:05.311Z,30.96
2022-08-23T08:48:44.753Z,30.67
2022-08-23T08:51:56.655Z,30.55
2022-08-23T08:54:29.187Z,30.74
2022-08-23T08:57:01.656Z,30.43
2022-08-23T08:59:51.392Z,30.76
2022-08-23T09:02:31.725Z,31.10
2022-08-23T09:05:05.898Z,31.21
2022-08-23T09:07:59.333Z,31.10
2022-08-23T09:10:48.465Z,30.95
2022-08-23T09:14:08.373Z,30.88
2022-08-23T09:16:52.995Z,30.94
2022-08-23T09:19:25.036Z,31.30
2022-08-23T09:22:02.008Z,31.28
2022-08-23T09:24:32.227Z,31.04
2022-08-23T09:27:16.042Z,31.34
2022-08-23T09:29:56.273Z,30.93
2022-08-23T09:32:37.926Z,30.92
2022-08-23T09:35:18.949Z,30.95
2022-08-23T09:38:15.588Z,31.06
2022-08-23T09:40:52.666Z,31.08
2022-08-23T09:43:31.179Z,31.02
2022-08-23T09:46:02.371Z,30.99
2022-08-23T09:48:40.746Z,30.99
2022-08-23T09:51:36.048Z,31.08
2022-08-23T09:54:29.055Z,30.79
2022-08-23T09:57:04.908Z,30.71
2022-08-23T09:59:44.174Z,30.98
2022-08-23T10:02:27.253Z,30.95
2022-08-23T10:05:37.164Z,30.89
2022-08-23T10:08:10.645Z,30.89
2022-08-23T10:10:51.773Z,30.90
2022-08-23T10:13:27.583Z,31.15
2022-08-23T10:16:04.610Z,31.11
2022-08-23T10:18:53.590Z,31.00
2022-08-23T10:21:57.416Z,31.02
2022-08-23T10:24:47.387Z,31.16
2022-08-23T10:27:53.403Z,31.42
2022-08-23T10:30:38.785Z,31.35
2022-08-23T10:33:37.959Z,31.41
2022-08-23T10:36:38.410Z,31.18
2022-08-23T10:39:23.897Z,31.24
2022-08-23T10:42:10.623Z,31.41
2022-08-23T10:44:58.848Z,31.46
2022-08-23T10:47:46.037Z,31.42
2022-08-23T10:50:20.849Z,31.31
2022-08-23T10:53:01.204Z,31.32
2022-08-23T10:55:55.044Z,31.31
2022-08-23T10:58:27.825Z,31.51
2022-08-23T11:01:00.808Z,31.22
2022-08-23T11:03:43.442Z,31.40
2022-08-23T11:06:36.731Z,31.20
2022-08-23T11:09:21.087Z,31.36
2022-08-23T11:12:11.044Z,31.57
2022-08-23T11:15:04.798Z,31.75
2022-08-23T11:17:53.937Z,31.78
2022-08-23T11:20:50.230Z,31.93
2022-08-23T11:23:44.479Z,31.83
2022-08-23T11:26:40.178Z,32.01
2022-08-23T11:29:24.940Z,31.95
2022-08-23T11:32:39.814Z,32.54
2022-08-23T11:35:29.389Z,32.20
2022-08-23T11:38:04.848Z,32.22
2022-08-23T11:41:00.007Z,32.31
2022-08-23T11:43:38.358Z,32.43
2022-08-23T11:46:17.113Z,32.73
2022-08-23T11:48:58.300Z,32.91
2022-08-23T11:51:32.551Z,31.87
2022-08-23T11:54:29.452Z,32.47
2022-08-23T11:57:35.629Z,32.97
2022-08-23T12:00:27.758Z,33.30
2022-08-23T12:03:22.052Z,33.65
2022-08-23T12:05:53.954Z,33.43
2022-08-23T12:08:28.315Z,33.27
2022-08-23T12:11:03.617Z,33.63
2022-08-23T12:13:48.937Z,34.08
2022-08-23T12:16:17.800Z,34.00
2022-08-23T12:18:54.046Z,34.09
2022-08-23T12:21:26.863Z,33.60
2022-08-23T12:23:56.889Z,33.00
2022-08-23T12:26:38.480Z,33.48
2022-08-23T12:29:12.444Z,33.76
2022-08-23T12:31:53.198Z,33.39
2022-08-23T12:34:39.464Z,33.70
2022-08-23T12:37:20.679Z,33.79
2022-08-23T12:39:55.863Z,33.95
2022-08-23T12:42:34.504Z,33.94
2022-08-23T12:45:20.309Z,34.32
2022-08-23T12:48:00.504Z,34.36
2022-08-23T12:50:33.648Z,34.13
2022-08-23T12:53:06.826Z,34.02
2022-08-23T12:55:39.591Z,34.24
2022-08-23T12:58:09.540Z,33.81
2022-08-23T13:00:43.397Z,33.53
2022-08-23T13:03:14.617Z,33.30
2022-08-23T13:05:47.684Z,33.60
2022-08-23T13:08:22.810Z,33.22
2022-08-23T13:11:08.164Z,33.66
2022-08-23T13:13:40.033Z,34.29
2022-08-23T13:16:29.013Z,34.53
2022-08-23T13:19:25.758Z,34.74
2022-08-23T13:22:19.317Z,35.01
2022-08-23T13:25:29.265Z,35.02
2022-08-23T13:28:07.806Z,34.67
2022-08-23T13:30:38.463Z,35.08
2022-08-23T13:33:10.698Z,35.16
2022-08-23T13:35:44.470Z,34.74
2022-08-23T13:38:24.862Z,34.32
2022-08-23T13:41:07.404Z,34.30
2022-08-23T13:43:46.195Z,33.86
2022-08-23T13:46:27.241Z,34.17
2022-08-23T13:49:10.678Z,34.23
2022-08-23T13:51:41.959Z,34.30
2022-08-23T13:54:15.605Z,34.16
2022-08-23T13:56:49.679Z,34.29
2022-08-23T13:59:31.168Z,33.95
2022-08-23T14:02:01.904Z,34.00
2022-08-23T14:04:30.065Z,33.63
2022-08-23T14:07:00.095Z,33.60
2022-08-23T14:09:28.410Z,32.87
2022-08-23T14:11:59.553Z,33.19
2022-08-23T14:14:33.130Z,32.44
2022-08-23T14:17:03.028Z,32.36
2022-08-23T14:22:22.632Z,32.09
2022-08-23T14:24:50.792Z,31.88
2022-08-23T14:27:19.038Z,31.94
2022-08-23T14:29:47.228Z,31.84
2022-08-23T14:32:15.394Z,31.69
2022-08-23T14:34:43.642Z,31.30
2022-08-23T14:40:00.025Z,30.23
2022-08-23T14:42:28.280Z,29.96
2022-08-23T14:44:56.456Z,29.80
2022-08-23T14:47:24.690Z,29.95
2022-08-23T14:49:54.298Z,30.13
2022-08-23T14:52:23.124Z,30.20
2022-08-23T14:54:51.351Z,30.34
2022-08-23T14:57:19.801Z,30.40
2022-08-23T14:59:47.916Z,30.12
2022-08-23T15:02:25.760Z,30.03
2022-08-23T15:04:55.773Z,29.99
2022-08-23T15:07:24.155Z,29.91
2022-08-23T15:09:56.273Z,29.93
2022-08-23T15:15:17.091Z,30.09
2022-08-23T15:17:52.608Z,30.00
2022-08-23T15:20:27.070Z,29.90
2022-08-23T15:22:56.108Z,29.92
2022-08-23T15:25:26.557Z,29.99
2022-08-23T15:27:55.629Z,30.00
2022-08-23T15:30:24.492Z,30.08
2022-08-23T15:32:56.749Z,30.06
2022-08-23T15:35:26.539Z,30.05
2022-08-23T15:37:56.627Z,29.98
2022-08-23T15:40:25.586Z,29.80
2022-08-23T15:42:54.319Z,29.61
2022-08-23T15:45:22.752Z,29.47
2022-08-23T15:47:55.036Z,29.50
2022-08-23T15:50:31.108Z,29.63
2022-08-23T15:53:00.181Z,29.68
2022-08-23T15:55:33.117Z,29.67
2022-08-23T15:58:01.628Z,29.68
2022-08-23T16:00:29.822Z,29.64
2022-08-23T16:03:18.870Z,29.56
2022-08-23T16:05:48.412Z,29.44
2022-08-23T16:08:24.777Z,29.37
2022-08-23T16:10:54.249Z,29.30
2022-08-23T16:13:23.144Z,29.32
2022-08-23T16:15:52.298Z,29.33
2022-08-23T16:18:23.268Z,29.27
2022-08-23T16:20:54.138Z,29.34
2022-08-23T16:23:23.243Z,29.30
2022-08-23T16:25:51.647Z,29.27
2022-08-23T16:28:19.939Z,29.24
2022-08-23T16:30:48.215Z,29.23
2022-08-23T16:33:16.456Z,29.13
2022-08-23T16:35:44.683Z,29.10
2022-08-23T16:38:12.918Z,29.14
2022-08-23T16:40:42.109Z,29.10
2022-08-23T16:43:10.384Z,29.01
2022-08-23T16:45:38.576Z,28.95
2022-08-23T16:48:06.853Z,28.95
2022-08-23T16:50:35.117Z,28.95
2022-08-23T16:53:07.259Z,28.90
2022-08-23T16:55:37.291Z,28.84
2022-08-23T16:58:07.850Z,28.86
2022-08-23T17:00:36.994Z,28.93
2022-08-23T17:03:06.487Z,28.93
2022-08-23T17:05:34.923Z,28.87
2022-08-23T17:08:03.644Z,28.81
2022-08-23T17:10:33.738Z,28.74
2022-08-23T17:13:02.415Z,28.69
2022-08-23T17:15:34.529Z,28.74
2022-08-23T17:18:02.979Z,28.70
2022-08-23T17:20:34.555Z,28.64
2022-08-23T17:23:05.592Z,28.59
2022-08-23T17:25:35.373Z,28.46
2022-08-23T17:28:05.729Z,28.43
2022-08-23T17:30:34.406Z,28.40
2022-08-23T17:33:02.881Z,28.34
2022-08-23T17:35:33.703Z,28.29
2022-08-23T17:38:04.598Z,28.17
2022-08-23T17:40:39.435Z,28.10
2022-08-23T17:43:12.738Z,28.08
2022-08-23T17:45:47.057Z,28.08
2022-08-23T17:48:16.972Z,28.02
2022-08-23T17:50:46.251Z,28.00
2022-08-23T17:53:16.196Z,27.96
2022-08-23T17:55:44.403Z,27.89
2022-08-23T17:58:14.267Z,27.82
2022-08-23T18:00:42.966Z,27.78
2022-08-23T18:03:11.220Z,27.76
2022-08-23T18:05:41.161Z,27.65
2022-08-23T18:08:10.098Z,27.47
2022-08-23T18:10:38.638Z,27.08
2022-08-23T18:13:06.971Z,26.81
2022-08-23T18:15:35.279Z,26.66
2022-08-23T18:18:03.751Z,26.50
2022-08-23T18:20:33.265Z,26.36
2022-08-23T18:23:01.765Z,26.23
2022-08-23T18:25:30.423Z,26.16
2022-08-23T18:28:08.286Z,26.08
2022-08-23T18:30:41.464Z,25.94
2022-08-23T18:33:12.521Z,25.94
2022-08-23T18:35:41.978Z,25.86
2022-08-23T18:38:12.695Z,25.83
2022-08-23T18:40:47.433Z,25.73
2022-08-23T18:43:22.751Z,25.66
2022-08-23T18:45:54.320Z,25.55
2022-08-23T18:48:24.372Z,25.49
2022-08-23T18:50:53.109Z,25.39
2022-08-23T18:53:22.071Z,25.29
2022-08-23T18:55:50.475Z,25.18
2022-08-23T18:58:21.026Z,25.13
2022-08-23T19:00:52.713Z,25.06
2022-08-23T19:03:21.178Z,25.04
2022-08-23T19:05:49.446Z,24.93
2022-08-23T19:08:18.510Z,24.87
2022-08-23T19:10:47.470Z,24.87
2022-08-23T19:13:15.670Z,24.90
2022-08-23T19:15:44.766Z,24.90
2022-08-23T19:18:14.576Z,24.85
2022-08-23T19:20:43.449Z,24.86
2022-08-23T19:23:11.943Z,24.83
2022-08-23T19:25:43.094Z,24.80
2022-08-23T19:28:11.832Z,24.78
2022-08-23T19:30:43.764Z,24.77
2022-08-23T19:33:12.223Z,24.73
2022-08-23T19:35:40.695Z,24.64
2022-08-23T19:38:09.162Z,24.61
2022-08-23T19:40:37.407Z,24.61
2022-08-23T19:43:05.637Z,24.62
2022-08-23T19:45:34.549Z,24.59
2022-08-23T19:48:03.499Z,24.58
2022-08-23T19:50:32.547Z,24.58
2022-08-23T19:53:01.126Z,24.54
2022-08-23T19:55:32.572Z,24.48
2022-08-23T19:58:00.801Z,24.48
2022-08-23T20:00:31.299Z,24.40
2022-08-23T20:03:02.391Z,24.31
2022-08-23T20:05:34.243Z,24.30
2022-08-23T20:08:03.145Z,24.28
2022-08-23T20:10:31.421Z,24.29
2022-08-23T20:13:01.014Z,24.30
2022-08-23T20:15:29.764Z,24.24
2022-08-23T20:17:58.763Z,24.19
2022-08-23T20:20:26.924Z,24.16
2022-08-23T20:23:13.626Z,24.09
2022-08-23T20:25:43.449Z,24.02
2022-08-23T20:28:11.774Z,24.01
2022-08-23T20:30:40.204Z,23.95
2022-08-23T20:33:08.432Z,23.92
2022-08-23T20:35:36.584Z,23.89
2022-08-23T20:38:04.837Z,23.87
2022-08-23T20:40:33.113Z,23.81
2022-08-23T20:43:01.630Z,23.76
2022-08-23T20:45:30.161Z,23.74
2022-08-23T20:47:58.477Z,23.69
2022-08-23T20:50:26.657Z,23.66
2022-08-23T20:52:55.951Z,23.61
2022-08-23T20:55:24.680Z,23.59
2022-08-23T20:57:52.841Z,23.54
2022-08-23T21:00:21.243Z,23.50
2022-08-23T21:02:49.353Z,23.45
2022-08-23T21:05:17.628Z,23.42
2022-08-23T21:07:46.221Z,23.37
2022-08-23T21:10:15.176Z,23.30
2022-08-23T21:12:43.344Z,23.25
2022-08-23T21:15:11.746Z,23.18
2022-08-23T21:17:42.874Z,23.12
2022-08-23T21:20:15.199Z,23.10
2022-08-23T21:22:43.436Z,23.13
2022-08-23T21:25:11.826Z,23.08
2022-08-23T21:27:40.051Z,23.04
2022-08-23T21:30:09.528Z,23.01
2022-08-23T21:32:37.786Z,22.97
2022-08-23T21:35:06.333Z,22.97
2022-08-23T21:37:35.586Z,22.98
2022-08-23T21:40:04.501Z,22.95
2022-08-23T21:42:32.737Z,22.90
2022-08-23T21:45:00.984Z,22.86
2022-08-23T21:47:31.356Z,22.84
2022-08-23T21:49:59.510Z,22.85
2022-08-23T21:52:27.689Z,22.88
2022-08-23T21:54:55.940Z,22.86
2022-08-23T21:57:24.153Z,22.85
2022-08-23T21:59:53.203Z,22.78
2022-08-23T22:02:21.508Z,22.76
2022-08-23T22:04:50.341Z,22.72
2022-08-23T22:07:18.586Z,22.63
2022-08-23T22:09:47.279Z,22.60
2022-08-23T22:12:23.174Z,22.56
2022-08-23T22:14:53.440Z,22.51
2022-08-23T22:17:21.588Z,22.52
2022-08-23T22:19:52.233Z,22.49
2022-08-23T22:22:24.959Z,22.46
2022-08-23T22:24:54.227Z,22.41
2022-08-23T22:27:22.344Z,22.38
2022-08-23T22:29:50.670Z,22.31
2022-08-23T22:32:19.380Z,22.12
2022-08-23T22:34:47.629Z,22.08
2022-08-23T22:37:16.505Z,21.94
2022-08-23T22:39:45.992Z,21.96
2022-08-23T22:42:16.327Z,21.99
2022-08-23T22:44:44.497Z,22.01
2022-08-23T22:47:12.763Z,21.93
2022-08-23T22:49:41.015Z,21.95
2022-08-23T22:52:09.170Z,21.91
2022-08-23T22:54:37.312Z,21.86
2022-08-23T22:57:05.630Z,21.84
2022-08-23T22:59:33.855Z,21.76
2022-08-23T23:02:03.304Z,21.74
2022-08-23T23:04:32.941Z,21.73
2022-08-23T23:07:02.004Z,21.71
2022-08-23T23:09:30.293Z,21.68
2022-08-23T23:11:58.518Z,21.66
2022-08-23T23:14:28.841Z,21.68
2022-08-23T23:16:57.090Z,21.66
2022-08-23T23:19:45.773Z,21.61
2022-08-23T23:22:16.126Z,21.57
2022-08-23T23:24:44.368Z,21.51
2022-08-23T23:27:12.803Z,21.48
2022-08-23T23:29:43.998Z,21.44
2022-08-23T23:32:12.157Z,21.39
2022-08-23T23:34:40.357Z,21.44
2022-08-23T23:37:11.090Z,21.44
2022-08-23T23:39:39.729Z,21.43
2022-08-23T23:42:07.995Z,21.42
2022-08-23T23:44:36.129Z,21.37
2022-08-23T23:47:06.849Z,21.30
2022-08-23T23:49:35.003Z,21.25
2022-08-23T23:52:05.175Z,21.22
2022-08-23T23:54:35.614Z,21.20
2022-08-23T23:57:05.437Z,21.23
2022-08-23T23:59:34.252Z,21.20
